createdAt,value
2022-08-26T00:01:54.181Z,13.95
2022-08-26T00:04:23.566Z,12.57
2022-08-26T00:06:50.856Z,7.03
2022-08-26T00:09:17.620Z,16.05
2022-08-26T00:11:45.355Z,7.75
2022-08-26T00:14:13.741Z,10.52
2022-08-26T00:16:47.524Z,10.35
2022-08-26T00:19:17.710Z,10.93
2022-08-26T00:21:45.482Z,7.45
2022-08-26T00:24:13.258Z,7.03
2022-08-26T00:26:41.417Z,7.90
2022-08-26T00:29:08.416Z,9.68
2022-08-26T00:31:36.441Z,9.65
2022-08-26T00:34:04.155Z,9.88
2022-08-26T00:36:31.863Z,11.70
2022-08-26T00:38:59.072Z,11.55
2022-08-26T00:41:25.804Z,14.57
2022-08-26T00:43:53.043Z,8.13
2022-08-26T00:46:31.342Z,15.50
2022-08-26T00:49:19.736Z,10.35
2022-08-26T00:51:52.260Z,7.32
2022-08-26T00:54:22.882Z,7.03
2022-08-26T00:56:53.252Z,6.82
2022-08-26T00:59:21.033Z,10.52
2022-08-26T01:01:47.971Z,10.82
2022-08-26T01:04:19.132Z,15.05
2022-08-26T01:06:47.958Z,8.02
2022-08-26T01:09:15.787Z,10.98
2022-08-26T01:11:42.766Z,12.15
2022-08-26T01:14:12.336Z,11.27
2022-08-26T01:16:39.174Z,9.48
2022-08-26T01:19:24.954Z,10.00
2022-08-26T01:22:02.442Z,15.38
2022-08-26T01:24:30.765Z,12.13
2022-08-26T01:27:01.636Z,9.43
2022-08-26T01:29:30.705Z,9.85
2022-08-26T01:31:58.759Z,11.43
2022-08-26T01:34:32.637Z,11.50
2022-08-26T01:37:11.734Z,8.63
2022-08-26T01:39:43.551Z,11.07
2022-08-26T01:42:14.623Z,9.15
2022-08-26T01:45:07.789Z,6.20
2022-08-26T01:47:37.841Z,11.35
2022-08-26T01:50:11.607Z,15.88
2022-08-26T01:52:41.245Z,9.10
2022-08-26T01:55:11.649Z,14.32
2022-08-26T01:57:39.301Z,13.32
2022-08-26T02:00:08.778Z,12.40
2022-08-26T02:02:35.497Z,9.93
2022-08-26T02:05:07.152Z,14.20
2022-08-26T02:07:34.391Z,9.80
2022-08-26T02:10:01.142Z,7.18
2022-08-26T02:12:28.261Z,12.48
2022-08-26T02:14:59.541Z,12.93
2022-08-26T02:17:33.800Z,11.90
2022-08-26T02:20:02.163Z,6.80
2022-08-26T02:22:30.572Z,10.38
2022-08-26T02:25:00.741Z,9.18
2022-08-26T02:27:33.249Z,8.77
2022-08-26T02:30:07.341Z,9.35
2022-08-26T02:32:34.089Z,12.98
2022-08-26T02:35:02.048Z,9.50
2022-08-26T02:37:30.940Z,9.05
2022-08-26T02:39:58.143Z,7.82
2022-08-26T02:42:25.035Z,6.03
2022-08-26T02:44:52.071Z,9.57
2022-08-26T02:47:18.787Z,8.13
2022-08-26T02:49:47.209Z,7.65
2022-08-26T02:52:14.561Z,9.55
2022-08-26T02:54:41.317Z,15.43
2022-08-26T02:57:09.240Z,11.60
2022-08-26T02:59:36.090Z,18.67
2022-08-26T03:02:03.233Z,7.90
2022-08-26T03:04:31.065Z,6.63
2022-08-26T03:07:00.220Z,12.55
2022-08-26T03:09:27.911Z,8.93
2022-08-26T03:11:55.461Z,9.55
2022-08-26T03:14:23.955Z,6.78
2022-08-26T03:16:53.879Z,7.63
2022-08-26T03:19:22.832Z,6.30
2022-08-26T03:21:49.665Z,15.82
2022-08-26T03:24:17.744Z,9.57
2022-08-26T03:26:52.969Z,9.63
2022-08-26T03:29:40.067Z,7.50
2022-08-26T03:32:07.129Z,8.85
2022-08-26T03:34:34.037Z,7.68
2022-08-26T03:37:01.162Z,9.88
2022-08-26T03:39:28.202Z,7.53
2022-08-26T03:41:58.887Z,11.20
2022-08-26T03:44:26.643Z,9.35
2022-08-26T03:46:54.499Z,6.00
2022-08-26T03:49:22.263Z,7.07
2022-08-26T03:51:49.003Z,10.23
2022-08-26T03:54:16.881Z,10.32
2022-08-26T03:56:43.582Z,10.18
2022-08-26T03:59:13.635Z,5.30
2022-08-26T04:01:40.396Z,12.13
2022-08-26T04:04:07.174Z,16.20
2022-08-26T04:06:42.395Z,7.90
2022-08-26T04:09:19.205Z,12.65
2022-08-26T04:11:47.522Z,9.57
2022-08-26T04:14:22.203Z,8.30
2022-08-26T04:16:49.744Z,11.85
2022-08-26T04:19:18.683Z,10.23
2022-08-26T04:21:48.095Z,12.70
2022-08-26T04:24:16.210Z,23.17
2022-08-26T04:26:44.417Z,13.38
2022-08-26T04:29:18.556Z,12.57
2022-08-26T04:31:47.978Z,9.65
2022-08-26T04:34:15.226Z,8.15
2022-08-26T04:36:43.161Z,14.73
2022-08-26T04:39:18.728Z,14.43
2022-08-26T04:41:48.038Z,10.30
2022-08-26T04:44:16.443Z,13.40
2022-08-26T04:46:44.338Z,11.85
2022-08-26T04:49:11.485Z,11.70
2022-08-26T04:51:39.037Z,12.30
2022-08-26T04:54:07.163Z,9.00
2022-08-26T04:56:40.186Z,14.35
2022-08-26T04:59:16.683Z,10.90
2022-08-26T05:01:46.652Z,10.27
2022-08-26T05:04:13.792Z,10.85
2022-08-26T05:06:43.584Z,5.95
2022-08-26T05:09:14.015Z,10.85
2022-08-26T05:11:42.388Z,16.50
2022-08-26T05:14:09.674Z,13.10
2022-08-26T05:16:37.626Z,14.25
2022-08-26T05:19:08.543Z,12.52
2022-08-26T05:21:36.407Z,11.23
2022-08-26T05:24:04.682Z,9.88
2022-08-26T05:26:32.043Z,11.70
2022-08-26T05:28:58.947Z,11.27
2022-08-26T05:31:32.563Z,12.80
2022-08-26T05:34:03.687Z,13.32
2022-08-26T05:36:33.486Z,12.30
2022-08-26T05:39:02.559Z,12.47
2022-08-26T05:41:34.273Z,16.55
2022-08-26T05:44:05.919Z,9.77
2022-08-26T05:46:33.547Z,12.73
2022-08-26T05:49:01.711Z,15.95
2022-08-26T05:51:29.298Z,12.02
2022-08-26T05:53:58.389Z,15.10
2022-08-26T05:56:27.357Z,12.30
2022-08-26T05:58:55.412Z,16.63
2022-08-26T06:01:28.374Z,8.32
2022-08-26T06:03:59.695Z,12.80
2022-08-26T06:06:32.436Z,9.80
2022-08-26T06:11:30.492Z,17.23
2022-08-26T06:14:03.574Z,12.10
2022-08-26T06:16:32.589Z,19.98
2022-08-26T06:19:02.991Z,20.27
2022-08-26T06:21:35.580Z,15.10
2022-08-26T06:24:26.957Z,17.25
2022-08-26T06:26:56.969Z,20.55
2022-08-26T06:29:25.844Z,18.30
2022-08-26T06:31:54.019Z,11.38
2022-08-26T06:36:58.416Z,14.63
2022-08-26T06:39:25.345Z,12.75
2022-08-26T06:41:52.150Z,8.35
2022-08-26T06:44:19.485Z,18.02
2022-08-26T06:46:50.311Z,12.43
2022-08-26T06:49:18.238Z,12.32
2022-08-26T06:51:55.173Z,11.82
2022-08-26T06:54:22.034Z,8.57
2022-08-26T06:56:49.467Z,13.38
2022-08-26T06:59:16.285Z,15.38
2022-08-26T07:01:45.002Z,7.78
2022-08-26T07:04:15.673Z,10.85
2022-08-26T07:06:48.942Z,13.10
2022-08-26T07:09:17.398Z,13.10
2022-08-26T07:11:45.111Z,10.48
2022-08-26T07:14:12.785Z,7.45
2022-08-26T07:16:42.732Z,10.50
2022-08-26T07:21:41.495Z,7.25
2022-08-26T07:24:11.184Z,7.72
2022-08-26T07:26:39.278Z,15.23
2022-08-26T07:29:12.418Z,8.02
2022-08-26T07:31:42.709Z,14.27
2022-08-26T07:34:10.842Z,16.63
2022-08-26T07:36:38.002Z,10.50
2022-08-26T07:39:06.130Z,11.65
2022-08-26T07:41:33.506Z,17.05
2022-08-26T07:44:00.914Z,9.57
2022-08-26T07:46:30.186Z,11.32
2022-08-26T07:48:58.249Z,6.30
2022-08-26T07:51:26.606Z,6.00
2022-08-26T07:53:54.746Z,7.07
2022-08-26T07:56:23.265Z,11.00
2022-08-26T07:58:52.193Z,13.02
2022-08-26T08:01:23.819Z,7.57
2022-08-26T08:03:55.021Z,10.93
2022-08-26T08:06:27.411Z,9.18
2022-08-26T08:08:55.794Z,12.60
2022-08-26T08:11:23.146Z,8.40
2022-08-26T08:13:56.294Z,16.92
2022-08-26T08:16:25.173Z,16.05
2022-08-26T08:18:53.572Z,33.55
2022-08-26T08:21:23.638Z,24.95
2022-08-26T08:23:54.740Z,41.33
2022-08-26T08:26:22.270Z,38.05
2022-08-26T08:28:49.445Z,47.28
2022-08-26T08:31:52.422Z,49.95
2022-08-26T08:34:10.955Z,49.65
2022-08-26T08:36:38.130Z,36.72
2022-08-26T08:39:06.409Z,36.33
2022-08-26T08:41:39.639Z,32.65
2022-08-26T08:44:10.689Z,41.65
2022-08-26T08:46:41.490Z,34.42
2022-08-26T08:49:10.783Z,30.13
2022-08-26T08:51:46.871Z,36.45
2022-08-26T08:54:16.306Z,48.88
2022-08-26T08:57:02.827Z,67.38
2022-08-26T08:59:38.543Z,76.63
2022-08-26T09:02:18.983Z,86.57
2022-08-26T09:04:58.859Z,66.68
2022-08-26T09:07:29.783Z,64.75
2022-08-26T09:10:20.749Z,61.08
2022-08-26T09:12:48.220Z,68.75
2022-08-26T09:15:21.546Z,54.83
2022-08-26T09:17:54.543Z,59.10
2022-08-26T09:20:31.163Z,65.38
2022-08-26T09:22:58.328Z,76.38
2022-08-26T09:25:25.573Z,73.07
2022-08-26T09:27:53.782Z,87.70
2022-08-26T09:30:33.050Z,86.15
2022-08-26T09:33:02.610Z,77.60
2022-08-26T09:35:36.900Z,58.92
2022-08-26T09:38:20.724Z,64.68
2022-08-26T09:40:59.213Z,64.43
2022-08-26T09:43:28.441Z,81.45
2022-08-26T09:46:10.228Z,71.53
2022-08-26T09:48:40.543Z,74.13
2022-08-26T09:51:26.590Z,75.40
2022-08-26T09:53:58.053Z,73.72
2022-08-26T09:56:27.595Z,88.35
2022-08-26T09:58:55.861Z,98.00
2022-08-26T10:01:33.137Z,83.03
2022-08-26T10:04:06.456Z,61.35
2022-08-26T10:06:38.204Z,64.28
2022-08-26T10:09:09.817Z,81.55
2022-08-26T10:11:44.957Z,56.17
2022-08-26T10:14:52.886Z,86.97
2022-08-26T10:17:35.192Z,76.03
2022-08-26T10:20:22.509Z,60.50
2022-08-26T10:23:05.908Z,58.88
2022-08-26T10:25:35.180Z,64.95
2022-08-26T10:28:28.481Z,56.80
2022-08-26T10:31:04.174Z,44.25
2022-08-26T10:33:31.702Z,41.72
2022-08-26T10:36:00.763Z,43.95
2022-08-26T10:38:35.536Z,52.88
2022-08-26T10:41:21.210Z,58.97
2022-08-26T10:43:52.093Z,37.22
2022-08-26T10:46:27.236Z,46.00
2022-08-26T10:48:59.895Z,54.10
2022-08-26T10:51:32.028Z,42.25
2022-08-26T10:54:04.711Z,45.08
2022-08-26T10:56:44.912Z,46.95
2022-08-26T10:59:13.586Z,60.65
2022-08-26T11:01:47.142Z,45.15
2022-08-26T11:04:30.415Z,47.40
2022-08-26T11:07:20.616Z,52.53
2022-08-26T11:09:49.747Z,52.45
2022-08-26T11:12:36.037Z,46.33
2022-08-26T11:15:06.426Z,47.25
2022-08-26T11:17:45.871Z,36.35
2022-08-26T11:20:31.571Z,37.85
2022-08-26T11:23:14.358Z,37.65
2022-08-26T11:25:56.940Z,42.47
2022-08-26T11:28:48.071Z,35.42
2022-08-26T11:31:21.096Z,37.33
2022-08-26T11:33:52.344Z,42.30
2022-08-26T11:36:40.010Z,35.40
2022-08-26T11:39:19.582Z,35.42
2022-08-26T11:41:48.050Z,31.42
2022-08-26T11:44:21.644Z,30.60
2022-08-26T11:47:01.596Z,34.03
2022-08-26T11:49:31.434Z,32.72
2022-08-26T11:52:15.949Z,24.88
2022-08-26T11:54:59.708Z,31.20
2022-08-26T11:57:27.078Z,26.60
2022-08-26T11:59:54.842Z,23.83
2022-08-26T12:02:21.966Z,24.58
2022-08-26T12:04:50.292Z,30.10
2022-08-26T12:07:23.975Z,26.00
2022-08-26T12:09:56.502Z,24.15
2022-08-26T12:12:26.060Z,38.97
2022-08-26T12:15:31.977Z,29.38
2022-08-26T12:18:00.317Z,32.83
2022-08-26T12:20:45.696Z,32.60
2022-08-26T12:23:23.446Z,36.60
2022-08-26T12:25:52.716Z,33.08
2022-08-26T12:28:21.492Z,33.78
2022-08-26T12:33:22.775Z,35.85
2022-08-26T12:35:54.324Z,40.60
2022-08-26T12:38:22.580Z,31.95
2022-08-26T12:40:50.335Z,31.45
2022-08-26T12:43:37.126Z,42.85
2022-08-26T12:46:06.664Z,34.30
2022-08-26T12:48:36.030Z,32.60
2022-08-26T12:51:03.918Z,38.08
2022-08-26T12:53:33.227Z,50.10
2022-08-26T12:56:05.347Z,48.47
2022-08-26T12:58:35.333Z,37.65
2022-08-26T13:01:06.458Z,43.78
2022-08-26T13:03:45.597Z,36.13
2022-08-26T13:06:31.257Z,39.55
2022-08-26T13:08:58.494Z,41.80
2022-08-26T13:11:33.765Z,50.20
2022-08-26T13:14:00.939Z,46.55
2022-08-26T13:16:29.033Z,37.08
2022-08-26T13:18:58.798Z,38.22
2022-08-26T13:21:29.560Z,46.80
2022-08-26T13:24:25.022Z,38.67
2022-08-26T13:26:52.192Z,36.78
2022-08-26T13:29:19.554Z,46.83
2022-08-26T13:31:47.899Z,41.42
2022-08-26T13:34:18.251Z,40.83
2022-08-26T13:36:46.119Z,38.33
2022-08-26T13:39:13.595Z,43.13
2022-08-26T13:41:40.913Z,49.90
2022-08-26T13:44:08.095Z,43.90
2022-08-26T13:46:35.353Z,44.42
2022-08-26T13:49:03.036Z,47.30
2022-08-26T13:51:30.636Z,47.03
2022-08-26T13:53:58.128Z,42.67
2022-08-26T13:56:27.455Z,42.70
2022-08-26T13:58:54.639Z,41.13
2022-08-26T14:01:21.762Z,42.35
2022-08-26T14:03:48.948Z,45.22
2022-08-26T14:06:16.295Z,42.90
2022-08-26T14:08:44.144Z,42.80
2022-08-26T14:11:11.432Z,38.35
2022-08-26T14:13:39.346Z,39.05
2022-08-26T14:16:09.645Z,36.10
2022-08-26T14:18:41.846Z,32.72
2022-08-26T14:21:12.084Z,30.58
2022-08-26T14:23:40.123Z,48.95
2022-08-26T14:26:11.718Z,40.28
2022-08-26T14:28:55.655Z,42.95
2022-08-26T14:31:23.786Z,43.55
2022-08-26T14:33:51.129Z,38.70
2022-08-26T14:36:33.614Z,35.10
2022-08-26T14:39:05.965Z,40.47
2022-08-26T14:41:34.074Z,35.22
2022-08-26T14:44:03.889Z,43.40
2022-08-26T14:46:32.358Z,44.10
2022-08-26T14:49:01.812Z,44.35
2022-08-26T14:54:12.583Z,42.72
2022-08-26T14:56:42.487Z,44.47
2022-08-26T14:59:10.361Z,41.22
2022-08-26T15:01:37.709Z,37.17
2022-08-26T15:04:04.998Z,44.95
2022-08-26T15:06:33.047Z,42.28
2022-08-26T15:09:00.321Z,41.65
2022-08-26T15:11:27.639Z,43.40
2022-08-26T15:13:55.264Z,43.28
2022-08-26T15:16:23.022Z,41.00
2022-08-26T15:18:51.740Z,44.85
2022-08-26T15:21:19.419Z,42.42
2022-08-26T15:23:47.726Z,37.33
2022-08-26T15:26:15.383Z,36.70
2022-08-26T15:28:42.887Z,31.00
2022-08-26T15:31:10.684Z,39.38
2022-08-26T15:33:38.262Z,40.88
2022-08-26T15:36:06.420Z,39.55
2022-08-26T15:38:38.379Z,41.10
2022-08-26T15:41:06.430Z,40.75
2022-08-26T15:43:33.649Z,36.72
2022-08-26T15:46:01.130Z,40.80
2022-08-26T15:48:28.887Z,32.15
2022-08-26T15:50:59.750Z,33.80
2022-08-26T15:53:27.360Z,33.55
2022-08-26T15:55:56.322Z,34.13
2022-08-26T15:58:24.866Z,33.65
2022-08-26T16:03:21.297Z,34.72
2022-08-26T16:05:48.529Z,32.75
2022-08-26T16:08:16.020Z,33.45
2022-08-26T16:10:49.401Z,37.25
2022-08-26T16:13:18.116Z,37.83
2022-08-26T16:15:45.494Z,40.38
2022-08-26T16:18:13.988Z,36.63
2022-08-26T16:20:55.373Z,33.20
2022-08-26T16:23:35.363Z,31.35
2022-08-26T16:26:12.876Z,35.92
2022-08-26T16:28:40.037Z,29.85
2022-08-26T16:31:07.620Z,34.67
2022-08-26T16:33:34.848Z,37.05
2022-08-26T16:36:02.303Z,35.72
2022-08-26T16:38:32.225Z,30.98
2022-08-26T16:41:03.044Z,44.83
2022-08-26T16:43:30.300Z,35.53
2022-08-26T16:45:57.902Z,35.33
2022-08-26T16:48:25.198Z,38.55
2022-08-26T16:50:54.388Z,38.53
2022-08-26T16:53:21.937Z,35.92
2022-08-26T16:55:50.144Z,38.33
2022-08-26T16:58:17.683Z,39.20
2022-08-26T17:00:45.347Z,41.15
2022-08-26T17:03:13.082Z,35.80
2022-08-26T17:05:40.388Z,36.85
2022-08-26T17:08:07.872Z,38.83
2022-08-26T17:10:35.096Z,36.80
2022-08-26T17:13:02.558Z,34.80
2022-08-26T17:15:29.877Z,37.40
2022-08-26T17:17:57.382Z,39.35
2022-08-26T17:20:25.220Z,38.05
2022-08-26T17:22:53.170Z,28.55
2022-08-26T17:25:22.041Z,29.58
2022-08-26T17:27:49.335Z,26.42
2022-08-26T17:30:17.701Z,30.40
2022-08-26T17:32:44.972Z,31.40
2022-08-26T17:35:12.968Z,37.63
2022-08-26T17:37:40.476Z,32.38
2022-08-26T17:40:09.649Z,44.63
2022-08-26T17:42:40.354Z,42.88
2022-08-26T17:45:08.787Z,42.65
2022-08-26T17:47:36.003Z,43.45
2022-08-26T17:50:04.695Z,44.13
2022-08-26T17:52:34.237Z,47.97
2022-08-26T17:55:01.441Z,45.85
2022-08-26T17:57:28.791Z,39.38
2022-08-26T17:59:56.857Z,44.75
2022-08-26T18:02:24.328Z,38.45
2022-08-26T18:04:51.498Z,36.88
2022-08-26T18:07:18.652Z,34.38
2022-08-26T18:09:45.873Z,41.58
2022-08-26T18:12:13.183Z,45.72
2022-08-26T18:14:40.320Z,39.72
2022-08-26T18:17:07.812Z,43.72
2022-08-26T18:19:35.257Z,43.38
2022-08-26T18:22:02.390Z,39.38
2022-08-26T18:24:32.077Z,43.72
2022-08-26T18:26:59.235Z,37.45
2022-08-26T18:29:27.881Z,37.38
2022-08-26T18:31:55.015Z,57.63
2022-08-26T18:34:22.218Z,46.67
2022-08-26T18:36:52.139Z,48.67
2022-08-26T18:39:19.475Z,43.00
2022-08-26T18:41:53.058Z,49.97
2022-08-26T18:44:23.178Z,68.47
2022-08-26T18:46:51.215Z,41.28
2022-08-26T18:49:19.265Z,42.85
2022-08-26T18:51:46.710Z,51.80
2022-08-26T18:54:14.293Z,40.53
2022-08-26T18:56:42.383Z,40.30
2022-08-26T18:59:09.552Z,54.78
2022-08-26T19:01:37.787Z,69.93
2022-08-26T19:04:05.697Z,40.05
2022-08-26T19:06:35.332Z,39.20
2022-08-26T19:09:03.274Z,46.10
2022-08-26T19:11:37.393Z,45.28
2022-08-26T19:14:10.636Z,42.88
2022-08-26T19:16:38.739Z,41.28
2022-08-26T19:19:06.353Z,56.20
2022-08-26T19:21:34.411Z,61.92
2022-08-26T19:24:02.538Z,55.58
2022-08-26T19:26:30.605Z,56.83
2022-08-26T19:28:58.388Z,63.53
2022-08-26T19:31:25.744Z,62.78
2022-08-26T19:33:53.397Z,58.58
2022-08-26T19:36:22.596Z,67.05
2022-08-26T19:38:50.105Z,61.70
2022-08-26T19:41:18.772Z,56.60
2022-08-26T19:43:46.558Z,61.53
2022-08-26T19:46:15.956Z,56.65
2022-08-26T19:48:44.378Z,62.63
2022-08-26T19:51:18.474Z,68.82
2022-08-26T19:53:46.259Z,68.30
2022-08-26T19:56:13.646Z,66.20
2022-08-26T19:58:41.247Z,59.58
2022-08-26T20:01:09.099Z,68.18
2022-08-26T20:03:37.051Z,63.97
2022-08-26T20:06:05.275Z,70.30
2022-08-26T20:08:33.192Z,62.35
2022-08-26T20:11:01.723Z,70.95
2022-08-26T20:13:29.012Z,75.78
2022-08-26T20:15:56.257Z,62.60
2022-08-26T20:18:42.037Z,77.82
2022-08-26T20:21:27.850Z,68.63
2022-08-26T20:23:56.363Z,70.38
2022-08-26T20:26:23.705Z,71.03
2022-08-26T20:28:51.268Z,68.78
2022-08-26T20:31:19.386Z,84.18
2022-08-26T20:33:46.811Z,77.05
2022-08-26T20:36:17.475Z,68.60
2022-08-26T20:38:45.981Z,73.53
2022-08-26T20:41:13.737Z,82.85
2022-08-26T20:43:42.647Z,64.15
2022-08-26T20:46:18.003Z,84.65
2022-08-26T20:48:46.038Z,74.82
2022-08-26T20:51:13.651Z,64.68
2022-08-26T20:53:41.396Z,65.10
2022-08-26T20:56:09.931Z,62.13
2022-08-26T20:58:37.591Z,67.43
2022-08-26T21:01:08.018Z,59.78
2022-08-26T21:03:36.349Z,68.95
2022-08-26T21:06:04.182Z,64.72
2022-08-26T21:08:33.325Z,69.43
2022-08-26T21:11:00.978Z,69.05
2022-08-26T21:13:42.851Z,66.40
2022-08-26T21:16:11.556Z,60.58
2022-08-26T21:18:39.091Z,61.97
2022-08-26T21:21:07.274Z,58.50
2022-08-26T21:23:34.745Z,58.75
2022-08-26T21:26:03.141Z,59.05
2022-08-26T21:28:30.415Z,67.85
2022-08-26T21:30:57.577Z,60.13
2022-08-26T21:33:24.741Z,58.00
2022-08-26T21:35:55.595Z,52.92
2022-08-26T21:38:23.070Z,65.15
2022-08-26T21:41:10.377Z,60.35
2022-08-26T21:43:38.389Z,56.85
2022-08-26T21:46:14.622Z,57.78
2022-08-26T21:48:50.367Z,55.30
2022-08-26T21:51:18.981Z,63.65
2022-08-26T21:53:48.267Z,52.90
2022-08-26T21:56:16.832Z,79.18
2022-08-26T21:58:44.777Z,69.05
2022-08-26T22:01:16.587Z,71.35
2022-08-26T22:03:47.253Z,67.47
2022-08-26T22:06:16.085Z,63.38
2022-08-26T22:08:43.277Z,71.03
2022-08-26T22:11:10.597Z,78.65
2022-08-26T22:13:38.791Z,65.70
2022-08-26T22:16:06.518Z,70.03
2022-08-26T22:18:33.954Z,68.30
2022-08-26T22:21:02.254Z,66.75
2022-08-26T22:23:29.755Z,64.60
2022-08-26T22:25:57.081Z,64.80
2022-08-26T22:28:24.390Z,66.00
2022-08-26T22:30:52.638Z,60.60
2022-08-26T22:33:19.869Z,80.75
2022-08-26T22:35:48.153Z,78.82
2022-08-26T22:38:15.551Z,80.35
2022-08-26T22:40:47.813Z,86.38
2022-08-26T22:43:15.194Z,82.80
2022-08-26T22:45:43.879Z,76.80
2022-08-26T22:48:12.187Z,65.63
2022-08-26T22:50:39.606Z,83.97
2022-08-26T22:53:06.804Z,62.45
2022-08-26T22:55:33.994Z,55.40
2022-08-26T22:58:01.194Z,52.75
2022-08-26T23:00:32.437Z,50.05
2022-08-26T23:03:00.297Z,68.15
2022-08-26T23:05:27.815Z,58.78
2022-08-26T23:07:56.666Z,53.35
2022-08-26T23:10:24.482Z,52.95
2022-08-26T23:12:52.424Z,53.42
2022-08-26T23:15:20.957Z,49.13
2022-08-26T23:17:48.386Z,60.53
2022-08-26T23:20:26.360Z,47.30
2022-08-26T23:22:53.742Z,50.47
2022-08-26T23:25:21.152Z,52.00
2022-08-26T23:27:48.610Z,56.60
2022-08-26T23:30:18.109Z,53.75
2022-08-26T23:32:45.710Z,81.57
2022-08-26T23:35:14.314Z,65.65
2022-08-26T23:37:44.114Z,75.22
2022-08-26T23:40:15.553Z,77.07
2022-08-26T23:42:42.835Z,63.38
2022-08-26T23:45:11.397Z,60.10
2022-08-26T23:47:38.645Z,60.65
2022-08-26T23:50:06.413Z,53.83
2022-08-26T23:52:52.222Z,50.30
2022-08-26T23:55:21.595Z,46.40
2022-08-26T23:57:48.774Z,55.30
